Time;durP1;ratioP1;P1;durP2;ratioP2;P2;SDS_P1;SDS_P2;PMS_P1;PMS_P2;Temp;Humidity;BMP_temperature;BMP_pressure;BME280_temperature;BME280_humidity;BME280_pressure;Samples;Min_cycle;Max_cycle;Signal;HPM_P1;HPM_P2
2021/12/27 00:02:01;;;;;;;111.60;31.10;;;;;;;1.31;100.00;100306.75;5100983;28;20036;-78
2021/12/27 00:04:33;;;;;;;71.65;27.63;;;;;;;1.31;100.00;100309.34;5102964;28;20039;-79
2021/12/27 00:06:58;;;;;;;75.25;27.75;;;;;;;1.33;100.00;100311.19;5093599;28;20036;-79
2021/12/27 00:09:24;;;;;;;91.93;28.27;;;;;;;1.35;100.00;100301.78;5107086;28;20421;-78
2021/12/27 00:11:49;;;;;;;65.85;27.80;;;;;;;1.37;100.00;100303.56;5100442;28;20032;-79
2021/12/27 00:14:15;;;;;;;72.53;28.63;;;;;;;1.38;100.00;100294.97;5080285;28;20054;-79
2021/12/27 00:16:40;;;;;;;84.63;29.58;;;;;;;1.41;100.00;100296.00;5101089;28;20035;-79
2021/12/27 00:19:06;;;;;;;77.13;27.83;;;;;;;1.44;100.00;100290.94;5106398;28;20080;-79
2021/12/27 00:21:32;;;;;;;75.07;26.38;;;;;;;1.51;100.00;100292.09;5086245;28;20027;-78
2021/12/27 00:23:58;;;;;;;78.40;27.08;;;;;;;1.49;100.00;100284.25;5078918;28;20575;-79
2021/12/27 00:26:23;;;;;;;82.45;28.02;;;;;;;1.51;100.00;100280.00;5099172;28;20064;-79
2021/12/27 00:28:51;;;;;;;82.15;28.52;;;;;;;1.54;100.00;100270.63;5109538;28;20023;-79
2021/12/27 00:31:16;;;;;;;70.38;26.67;;;;;;;1.57;100.00;100271.59;5107249;28;20049;-79
2021/12/27 00:33:42;;;;;;;75.00;27.38;;;;;;;1.61;100.00;100270.03;5110048;28;20102;-79
2021/12/27 00:36:07;;;;;;;68.53;26.33;;;;;;;1.60;100.00;100256.22;5090962;28;20038;-79
2021/12/27 00:38:34;;;;;;;74.10;27.60;;;;;;;1.60;100.00;100260.47;5104556;28;20028;-78
2021/12/27 00:41:00;;;;;;;79.57;27.95;;;;;;;1.62;100.00;100257.16;5098702;28;20048;-79
2021/12/27 00:43:26;;;;;;;87.22;29.33;;;;;;;1.62;100.00;100258.84;5081247;28;20494;-78
2021/12/27 00:45:51;;;;;;;72.00;29.30;;;;;;;1.64;100.00;100252.94;5087989;28;20070;-79
2021/12/27 00:48:17;;;;;;;81.47;28.50;;;;;;;1.69;100.00;100246.19;5083796;28;20074;-79
2021/12/27 00:50:44;;;;;;;74.10;26.98;;;;;;;1.71;100.00;100253.16;5077878;28;20058;-79
2021/12/27 00:53:10;;;;;;;77.63;28.90;;;;;;;1.70;100.00;100244.50;5098195;28;20042;-78
2021/12/27 00:55:35;;;;;;;87.60;28.88;;;;;;;1.74;100.00;100242.94;5108823;28;20098;-77
2021/12/27 00:58:01;;;;;;;85.60;30.23;;;;;;;1.75;100.00;100234.31;5085193;28;20024;-78
2021/12/27 01:00:28;;;;;;;72.68;25.33;;;;;;;1.77;100.00;100237.88;5106940;28;20031;-78
2021/12/27 01:02:55;;;;;;;86.47;28.25;;;;;;;1.77;100.00;100230.09;5087842;28;20405;-78
2021/12/27 01:05:22;;;;;;;97.03;28.90;;;;;;;1.76;100.00;100230.91;5083262;28;20045;-78
2021/12/27 01:07:48;;;;;;;82.90;27.10;;;;;;;1.75;100.00;100235.22;5096223;28;20115;-78
2021/12/27 01:17:46;;;;;;;99.15;30.77;;;;;;;1.83;100.00;100227.75;5095987;28;20036;-78
2021/12/27 01:20:21;;;;;;;74.25;26.98;;;;;;;1.86;100.00;100227.91;5098921;28;20032;-78
2021/12/27 01:22:47;;;;;;;102.50;30.20;;;;;;;1.86;100.00;100222.72;5079921;28;20463;-77
2021/12/27 01:25:13;;;;;;;84.72;28.73;;;;;;;1.88;100.00;100225.34;5094910;28;20032;-78
2021/12/27 01:27:40;;;;;;;104.95;30.73;;;;;;;1.90;100.00;100224.59;5097409;28;20413;-78
2021/12/27 01:30:08;;;;;;;92.25;28.55;;;;;;;1.89;100.00;100222.81;5081049;28;20483;-78
2021/12/27 01:32:40;;;;;;;107.90;31.88;;;;;;;1.89;100.00;100222.81;5101288;28;20036;-78
2021/12/27 01:35:07;;;;;;;93.57;31.58;;;;;;;1.93;100.00;100219.53;5076484;28;20027;-77
2021/12/27 01:37:32;;;;;;;85.10;28.50;;;;;;;1.93;100.00;100208.28;5091277;28;20066;-76
2021/12/27 01:39:58;;;;;;;93.07;28.90;;;;;;;1.92;100.00;100209.97;5097407;28;20055;-76
2021/12/27 01:42:24;;;;;;;97.53;30.10;;;;;;;1.93;100.00;100209.16;5076727;28;20012;-76
2021/12/27 01:44:49;;;;;;;87.72;29.17;;;;;;;1.93;100.00;100203.97;5080182;28;20036;-76
2021/12/27 01:47:15;;;;;;;106.00;31.00;;;;;;;1.93;100.00;100203.09;5092876;28;20031;-76
2021/12/27 01:49:41;;;;;;;94.65;29.77;;;;;;;1.93;100.00;100197.91;5076604;28;20039;-77
2021/12/27 01:52:07;;;;;;;85.80;29.50;;;;;;;1.95;100.00;100196.25;5104163;28;20039;-76
2021/12/27 01:54:33;;;;;;;87.07;29.08;;;;;;;1.98;100.00;100197.25;5084187;28;20036;-76
2021/12/27 01:57:00;;;;;;;81.88;28.80;;;;;;;1.99;100.00;100199.03;5081841;28;20081;-76
2021/12/27 01:59:26;;;;;;;86.28;28.80;;;;;;;2.01;100.00;100201.69;5099659;28;20341;-76
2021/12/27 02:01:53;;;;;;;84.78;27.38;;;;;;;2.01;100.00;100205.16;5099082;28;20034;-76
2021/12/27 02:04:19;;;;;;;79.30;28.23;;;;;;;2.04;100.00;100200.94;5111450;28;20114;-76
2021/12/27 02:06:44;;;;;;;79.32;26.55;;;;;;;2.01;100.00;100202.56;5109052;28;20051;-76
2021/12/27 02:09:10;;;;;;;69.85;25.23;;;;;;;2.05;100.00;100215.66;5095289;28;20024;-76
2021/12/27 02:11:36;;;;;;;74.60;26.13;;;;;;;2.08;100.00;100208.91;5087610;28;20028;-76
2021/12/27 02:14:08;;;;;;;77.82;26.65;;;;;;;2.08;100.00;100190.72;5105548;28;20023;-76
2021/12/27 02:16:35;;;;;;;76.32;26.25;;;;;;;2.09;100.00;100196.78;5086091;28;20031;-76
2021/12/27 02:19:01;;;;;;;62.67;25.35;;;;;;;2.10;100.00;100204.63;5097773;28;20030;-76
2021/12/27 02:21:27;;;;;;;75.65;26.00;;;;;;;2.10;100.00;100211.53;5105497;28;20387;-76
2021/12/27 02:23:54;;;;;;;64.28;25.13;;;;;;;2.12;100.00;100204.72;5084450;28;20028;-76
2021/12/27 02:26:21;;;;;;;67.13;26.05;;;;;;;2.12;100.00;100207.31;5102646;28;20036;-76
2021/12/27 02:28:47;;;;;;;68.03;24.88;;;;;;;2.13;100.00;100209.06;5098559;28;20487;-76
2021/12/27 02:31:14;;;;;;;64.00;23.63;;;;;;;2.15;100.00;100212.63;5085742;28;20119;-76
2021/12/27 02:33:45;;;;;;;62.25;24.80;;;;;;;2.11;100.00;100197.75;5105370;28;20023;-76
2021/12/27 02:36:12;;;;;;;60.28;24.45;;;;;;;2.10;100.00;100201.16;5081105;28;20051;-76
2021/12/27 02:38:40;;;;;;;69.63;25.08;;;;;;;2.15;100.00;100204.84;5103613;28;20412;-76
2021/12/27 02:41:09;;;;;;;57.38;23.73;;;;;;;2.14;100.00;100203.97;5103271;28;20046;-76
2021/12/27 02:43:35;;;;;;;70.95;26.13;;;;;;;2.13;100.00;100199.59;5106094;28;20383;-76
2021/12/27 02:46:04;;;;;;;73.68;25.30;;;;;;;2.13;100.00;100201.28;5113032;28;20506;-76
2021/12/27 02:48:33;;;;;;;57.15;23.20;;;;;;;2.16;100.00;100198.84;5106963;28;20481;-76
2021/12/27 02:50:59;;;;;;;71.40;25.08;;;;;;;2.17;100.00;100197.97;5106754;28;20020;-75
2021/12/27 02:53:26;;;;;;;83.82;26.38;;;;;;;2.16;100.00;100191.03;5089907;28;20160;-76
2021/12/27 02:55:54;;;;;;;74.68;24.85;;;;;;;2.18;100.00;100194.56;5087524;28;20027;-76
2021/12/27 02:58:20;;;;;;;69.30;24.17;;;;;;;2.20;100.00;100192.94;5088280;28;20087;-76
2021/12/27 03:00:50;;;;;;;95.70;28.25;;;;;;;2.21;100.00;100184.28;5107719;28;20154;-76
2021/12/27 03:03:17;;;;;;;100.63;27.77;;;;;;;2.22;100.00;100186.06;5106651;28;20034;-76
2021/12/27 03:05:44;;;;;;;78.70;26.38;;;;;;;2.22;100.00;100180.00;5107401;28;20463;-76
2021/12/27 03:08:14;;;;;;;79.60;25.58;;;;;;;2.24;100.00;100178.34;5107972;28;20043;-75
2021/12/27 03:10:45;;;;;;;90.68;26.63;;;;;;;2.24;100.00;100174.06;5109607;28;20036;-76
2021/12/27 03:13:19;;;;;;;88.25;25.73;;;;;;;2.24;100.00;100168.88;5092215;28;20031;-75
2021/12/27 03:15:45;;;;;;;;;;;;;;;2.26;100.00;100166.31;5111565;28;20020;-76
2021/12/27 03:18:14;;;;;;;78.18;24.85;;;;;;;2.26;100.00;100161.13;5084509;28;19915;-75
2021/12/27 03:20:39;;;;;;;71.43;25.25;;;;;;;2.25;100.00;100164.56;5091925;28;20050;-76
2021/12/27 03:23:05;;;;;;;76.00;25.60;;;;;;;2.26;100.00;100159.41;5081429;28;20075;-75
2021/12/27 03:25:30;;;;;;;98.50;26.45;;;;;;;2.28;100.00;100144.81;5089287;28;20043;-76
2021/12/27 03:27:56;;;;;;;99.72;27.98;;;;;;;2.31;100.00;100149.22;5087301;28;20032;-76
2021/12/27 03:30:24;;;;;;;77.95;26.23;;;;;;;2.31;100.00;100141.44;5096687;28;20020;-75
2021/12/27 03:32:51;;;;;;;96.50;27.67;;;;;;;2.29;100.00;100146.56;5083012;28;20085;-75
2021/12/27 03:35:25;;;;;;;106.32;28.48;;;;;;;2.28;100.00;100142.19;5104450;28;20119;-75
2021/12/27 03:37:53;;;;;;;118.53;29.48;;;;;;;2.26;100.00;100138.66;5086158;28;20028;-76
2021/12/27 03:40:20;;;;;;;89.70;27.98;;;;;;;2.29;100.00;100143.06;5074849;28;20147;-75
2021/12/27 03:42:49;;;;;;;111.05;30.83;;;;;;;2.32;100.00;100138.00;5066001;28;20028;-76
2021/12/27 03:45:19;;;;;;;107.40;29.80;;;;;;;2.36;100.00;100130.41;5069283;28;20039;-77
2021/12/27 03:47:44;;;;;;;115.90;31.40;;;;;;;2.37;100.00;100139.06;5069596;28;20078;-77
2021/12/27 03:50:10;;;;;;;120.30;33.03;;;;;;;2.38;100.00;100134.78;5057538;28;20029;-76
2021/12/27 03:52:37;;;;;;;109.85;31.40;;;;;;;2.39;100.00;100136.50;5054343;28;20029;-76
2021/12/27 03:55:07;;;;;;;122.30;32.10;;;;;;;2.43;100.00;100138.41;5063161;28;20024;-77
2021/12/27 03:57:35;;;;;;;121.82;34.22;;;;;;;2.41;100.00;100137.47;5069934;28;20086;-76
2021/12/27 04:00:16;;;;;;;115.68;32.22;;;;;;;2.43;100.00;100135.81;5067067;28;20078;-74
2021/12/27 04:02:43;;;;;;;121.38;31.13;;;;;;;2.48;100.00;100131.69;5070536;28;20016;-74
2021/12/27 04:05:10;;;;;;;107.30;30.73;;;;;;;2.50;100.00;100127.44;5061559;28;20036;-75
2021/12/27 04:07:40;;;;;;;135.00;33.40;;;;;;;2.49;100.00;100120.47;5067245;28;20036;-74
2021/12/27 04:10:08;;;;;;;107.25;30.83;;;;;;;2.51;100.00;100124.91;5071252;28;20480;-76
2021/12/27 04:12:35;;;;;;;113.88;32.47;;;;;;;2.53;100.00;100124.94;5059301;28;20029;-75
2021/12/27 04:15:02;;;;;;;126.38;33.38;;;;;;;2.53;100.00;100127.53;5068315;28;20070;-75
2021/12/27 04:17:28;;;;;;;132.02;31.45;;;;;;;2.52;100.00;100118.88;5063849;28;20078;-75
2021/12/27 04:19:54;;;;;;;115.53;31.40;;;;;;;2.53;100.00;100119.75;5058774;28;20037;-75
2021/12/27 04:22:23;;;;;;;118.03;33.20;;;;;;;2.53;100.00;100109.38;5063574;28;20028;-75
2021/12/27 04:24:49;;;;;;;119.07;31.98;;;;;;;2.54;100.00;100100.75;5061365;28;20043;-75
2021/12/27 04:27:14;;;;;;;159.38;33.92;;;;;;;2.53;100.00;100107.63;5066565;28;20051;-75
2021/12/27 04:29:43;;;;;;;142.05;34.83;;;;;;;2.57;100.00;100106.06;5064249;28;20052;-76
2021/12/27 04:32:08;;;;;;;136.55;33.22;;;;;;;2.58;100.00;100104.34;5062988;28;20461;-75
2021/12/27 04:34:34;;;;;;;131.10;34.15;;;;;;;2.59;100.00;100104.41;5063361;28;20040;-75
2021/12/27 04:37:00;;;;;;;149.93;33.72;;;;;;;2.64;100.00;100099.38;5068876;28;20037;-75
2021/12/27 04:39:26;;;;;;;108.25;31.48;;;;;;;2.64;100.00;100097.66;5059592;28;20021;-75
2021/12/27 04:41:52;;;;;;;126.47;31.08;;;;;;;2.66;100.00;100096.00;5104243;28;20038;-75
2021/12/27 04:44:18;;;;;;;148.48;33.85;;;;;;;2.68;100.00;100096.06;5103985;28;20062;-75
2021/12/27 04:46:43;;;;;;;174.00;33.58;;;;;;;2.68;100.00;100089.13;5105052;28;20035;-75
2021/12/27 04:49:10;;;;;;;117.15;33.08;;;;;;;2.67;100.00;100090.00;5104125;28;20389;-76
2021/12/27 04:51:36;;;;;;;98.10;29.33;;;;;;;2.68;100.00;100078.75;5099728;28;20035;-76
2021/12/27 04:54:02;;;;;;;158.20;33.20;;;;;;;2.70;100.00;100079.69;5098511;28;20031;-76
2021/12/27 04:56:28;;;;;;;165.70;33.33;;;;;;;2.73;100.00;100085.81;5087959;28;20373;-76
2021/12/27 04:58:53;;;;;;;143.20;35.40;;;;;;;2.76;100.00;100085.94;5088491;28;20118;-75
2021/12/27 05:01:19;;;;;;;115.65;31.83;;;;;;;2.81;100.00;100097.41;5102833;28;20014;-76
2021/12/27 05:03:45;;;;;;;127.63;34.92;;;;;;;2.85;100.00;100083.69;5091970;28;20088;-76
2021/12/27 05:06:13;;;;;;;197.45;35.30;;;;;;;2.87;100.00;100085.47;5084844;28;20027;-76
2021/12/27 05:08:40;;;;;;;137.85;33.55;;;;;;;2.89;100.00;100082.97;5097611;28;20036;-76
2021/12/27 05:11:07;;;;;;;134.35;31.85;;;;;;;2.89;100.00;100077.78;5082804;28;20051;-76
2021/12/27 05:13:33;;;;;;;163.40;33.80;;;;;;;2.91;100.00;100080.41;5069914;28;20039;-76
2021/12/27 05:16:00;;;;;;;186.38;35.28;;;;;;;2.90;100.00;100073.44;5082784;28;20419;-76
2021/12/27 05:18:26;;;;;;;161.55;33.13;;;;;;;2.90;100.00;100063.06;5093199;28;20026;-76
2021/12/27 05:20:52;;;;;;;185.30;36.50;;;;;;;2.91;100.00;100062.22;5089439;28;20020;-76
2021/12/27 05:23:18;;;;;;;204.90;36.63;;;;;;;2.96;100.00;100064.16;5102728;28;20031;-76
2021/12/27 05:25:43;;;;;;;213.98;37.00;;;;;;;2.96;100.00;100071.94;5096977;28;20039;-75
2021/12/27 05:28:09;;;;;;;148.27;33.50;;;;;;;3.00;100.00;100066.03;5105728;28;20068;-76
2021/12/27 05:30:36;;;;;;;317.33;39.80;;;;;;;3.04;100.00;100061.81;5082994;28;20463;-76
2021/12/27 05:33:02;;;;;;;158.98;34.92;;;;;;;3.08;100.00;100052.41;5105373;28;20031;-76
2021/12/27 05:35:28;;;;;;;164.45;34.53;;;;;;;3.07;100.00;100046.31;5094804;28;20460;-77
2021/12/27 05:37:54;;;;;;;237.52;37.63;;;;;;;3.11;100.00;100048.19;5083567;28;20061;-77
2021/12/27 05:40:22;;;;;;;176.27;36.45;;;;;;;3.11;100.00;100037.78;5078798;28;20045;-76
2021/12/27 05:42:51;;;;;;;157.57;33.85;;;;;;;3.11;100.00;100047.31;5066746;28;20029;-76
2021/12/27 05:45:18;;;;;;;224.27;39.47;;;;;;;3.13;100.00;100045.63;5059266;28;20087;-76
2021/12/27 05:47:44;;;;;;;139.38;32.58;;;;;;;3.10;100.00;100040.34;5062833;28;20031;-76
2021/12/27 05:50:11;;;;;;;147.35;35.08;;;;;;;3.10;100.00;100040.34;5056520;28;20036;-77
2021/12/27 05:52:39;;;;;;;140.63;33.30;;;;;;;3.12;100.00;100049.06;5066030;28;20555;-77
2021/12/27 05:55:07;;;;;;;233.30;38.33;;;;;;;3.14;100.00;100050.88;5064689;28;20024;-77
2021/12/27 05:57:33;;;;;;;133.05;32.92;;;;;;;3.18;100.00;100054.47;5060254;28;20020;-77
2021/12/27 05:59:59;;;;;;;155.73;34.80;;;;;;;3.18;100.00;100057.94;5058364;28;20064;-77
2021/12/27 06:02:24;;;;;;;156.68;36.05;;;;;;;3.24;100.00;100059.88;5062310;28;20426;-76
2021/12/27 06:04:50;;;;;;;211.18;38.50;;;;;;;3.27;100.00;100057.41;5065450;28;20434;-76
2021/12/27 06:07:16;;;;;;;143.70;34.75;;;;;;;3.31;100.00;100060.97;5067598;28;20043;-76
2021/12/27 06:09:43;;;;;;;241.65;39.90;;;;;;;3.32;100.00;100055.84;5072404;28;20095;-76
2021/12/27 06:12:09;;;;;;;176.90;37.97;;;;;;;3.32;100.00;100061.03;5061970;28;20112;-76
2021/12/27 06:14:35;;;;;;;175.30;38.17;;;;;;;3.32;100.00;100055.84;5059393;28;20465;-76
2021/12/27 06:17:00;;;;;;;194.60;39.00;;;;;;;3.31;100.00;100059.25;5067826;28;20082;-76
2021/12/27 06:19:26;;;;;;;158.05;35.40;;;;;;;3.32;100.00;100053.25;5069336;28;20034;-75
2021/12/27 06:21:53;;;;;;;210.20;38.20;;;;;;;3.30;100.00;100054.88;5061742;28;20017;-76
2021/12/27 06:24:18;;;;;;;171.93;38.10;;;;;;;3.30;100.00;100049.69;5078911;28;20384;-76
2021/12/27 06:26:44;;;;;;;170.40;38.15;;;;;;;3.32;100.00;100048.03;5065755;28;20020;-76
2021/12/27 06:29:09;;;;;;;159.20;37.33;;;;;;;3.31;100.00;100051.47;5064639;28;20392;-75
2021/12/27 06:31:35;;;;;;;198.85;38.33;;;;;;;3.31;100.00;100055.75;5062786;28;20499;-76
2021/12/27 06:34:00;;;;;;;199.88;39.70;;;;;;;3.29;100.00;100053.13;5062997;28;20024;-76
2021/12/27 06:36:27;;;;;;;182.63;37.70;;;;;;;3.30;100.00;100047.09;5062565;28;20028;-76
2021/12/27 06:38:53;;;;;;;155.02;37.00;;;;;;;3.32;100.00;100045.44;5070004;28;20032;-76
2021/12/27 06:41:19;;;;;;;199.30;38.47;;;;;;;3.31;100.00;100051.47;5063197;28;20069;-76
2021/12/27 06:43:44;;;;;;;182.95;38.30;;;;;;;3.36;100.00;100054.19;5058167;28;20107;-76
2021/12/27 06:46:10;;;;;;;181.65;37.20;;;;;;;3.37;100.00;100050.78;5061041;28;20040;-76
2021/12/27 06:48:36;;;;;;;158.25;37.90;;;;;;;3.38;100.00;100053.41;5064119;28;20440;-76
2021/12/27 06:51:02;;;;;;;162.82;38.67;;;;;;;3.40;100.00;100050.00;5058875;28;20029;-77
2021/12/27 06:53:31;;;;;;;216.80;41.20;;;;;;;3.41;100.00;100054.38;5063674;28;20036;-76
2021/12/27 06:55:57;;;;;;;158.13;37.03;;;;;;;3.40;100.00;100052.59;5062355;28;20549;-76
2021/12/27 06:58:24;;;;;;;207.43;40.05;;;;;;;3.40;100.00;100057.78;5066217;28;20036;-76
2021/12/27 07:00:49;;;;;;;177.65;37.20;;;;;;;3.41;100.00;100060.44;5064532;28;20100;-76
2021/12/27 07:03:15;;;;;;;173.40;38.78;;;;;;;3.43;100.00;100055.28;5062461;28;20159;-75
2021/12/27 07:05:41;;;;;;;182.13;37.42;;;;;;;3.44;100.00;100052.72;5066162;28;20056;-76
2021/12/27 07:08:08;;;;;;;170.00;34.72;;;;;;;3.45;100.00;100053.63;5062320;28;20040;-76
2021/12/27 07:10:34;;;;;;;226.70;41.83;;;;;;;3.48;100.00;100045.91;5064204;28;20100;-76
2021/12/27 07:13:02;;;;;;;205.57;38.67;;;;;;;3.51;100.00;100049.53;5060227;28;20036;-76
2021/12/27 07:15:28;;;;;;;278.25;45.15;;;;;;;3.54;100.00;100034.00;5065408;28;20024;-76
2021/12/27 07:17:53;;;;;;;256.30;41.47;;;;;;;3.57;100.00;100037.50;5059330;28;20029;-76
2021/12/27 07:20:24;;;;;;;161.80;36.95;;;;;;;3.61;100.00;100034.19;5064674;28;20024;-75
2021/12/27 07:22:51;;;;;;;196.85;39.35;;;;;;;3.66;100.00;100036.13;5067432;28;20063;-76
2021/12/27 07:25:17;;;;;;;231.48;41.97;;;;;;;3.67;100.00;100043.06;5050975;28;20037;-77
2021/12/27 07:27:42;;;;;;;198.30;42.22;;;;;;;3.69;100.00;100040.50;5062082;28;20036;-77
2021/12/27 07:30:10;;;;;;;210.60;41.88;;;;;;;3.67;100.00;100037.84;5058776;28;20385;-77
2021/12/27 07:32:36;;;;;;;219.90;40.70;;;;;;;3.67;100.00;100027.44;5065934;28;20396;-77
2021/12/27 07:35:03;;;;;;;219.70;41.55;;;;;;;3.69;100.00;100028.41;5066808;28;20088;-77
2021/12/27 07:37:30;;;;;;;242.70;42.65;;;;;;;3.72;100.00;100025.00;5068832;28;20043;-78
2021/12/27 07:39:56;;;;;;;232.23;41.38;;;;;;;3.75;100.00;100024.22;5080689;28;20068;-77
2021/12/27 07:42:21;;;;;;;187.80;38.40;;;;;;;3.80;100.00;100023.53;5091768;28;20032;-77
2021/12/27 07:44:47;;;;;;;214.02;39.97;;;;;;;3.84;100.00;100027.13;5110344;28;20023;-77
2021/12/27 07:47:13;;;;;;;237.00;41.53;;;;;;;3.87;100.00;100028.06;5088323;28;20031;-76
2021/12/27 07:49:40;;;;;;;196.45;43.03;;;;;;;3.89;100.00;100030.72;5095310;28;20024;-76
2021/12/27 07:52:06;;;;;;;265.48;43.85;;;;;;;3.91;100.00;100031.66;5081761;28;20028;-75
2021/12/27 07:54:32;;;;;;;209.95;39.97;;;;;;;3.96;100.00;100032.69;5096995;28;20027;-75
2021/12/27 07:57:03;;;;;;;249.32;41.38;;;;;;;3.95;100.00;100030.91;5095315;28;20118;-76
2021/12/27 07:59:29;;;;;;;393.90;44.95;;;;;;;3.98;100.00;100032.72;5100859;28;20037;-77
2021/12/27 08:01:55;;;;;;;323.10;44.42;;;;;;;3.99;100.00;100021.50;5107445;28;20020;-78
2021/12/27 08:04:21;;;;;;;249.60;40.38;;;;;;;3.99;100.00;100024.09;5107851;28;20485;-76
2021/12/27 08:06:47;;;;;;;182.80;36.13;;;;;;;3.98;100.00;100023.19;5106786;28;20023;-76
2021/12/27 08:09:12;;;;;;;195.65;36.15;;;;;;;3.98;100.00;100019.72;5102003;28;20032;-76
2021/12/27 08:11:38;;;;;;;260.98;40.40;;;;;;;3.99;100.00;100022.34;5087809;28;20111;-76
2021/12/27 08:14:04;;;;;;;345.90;44.65;;;;;;;4.03;100.00;100018.13;5090899;28;20353;-76
2021/12/27 08:16:29;;;;;;;194.27;37.15;;;;;;;4.09;100.00;100017.44;5091200;28;20027;-77
2021/12/27 08:18:55;;;;;;;201.73;37.28;;;;;;;4.10;100.00;100012.25;5080369;28;20026;-76
2021/12/27 08:21:22;;;;;;;286.83;43.25;;;;;;;4.11;100.00;100007.94;5085103;28;20065;-76
2021/12/27 08:23:48;;;;;;;215.77;37.45;;;;;;;4.14;100.00;100010.66;5100431;28;20030;-75
2021/12/27 08:26:16;;;;;;;220.30;36.97;;;;;;;4.15;100.00;100007.19;5109727;28;20024;-76
2021/12/27 08:28:43;;;;;;;231.57;35.75;;;;;;;4.17;100.00;100005.50;5109724;28;20031;-76
2021/12/27 08:31:09;;;;;;;212.40;35.45;;;;;;;4.19;100.00;100002.13;5079983;28;20046;-76
2021/12/27 08:33:36;;;;;;;177.70;35.17;;;;;;;4.26;100.00;100000.56;5103483;28;20483;-76
2021/12/27 08:36:01;;;;;;;213.40;37.28;;;;;;;4.30;100.00;100002.44;5081714;28;20031;-76
2021/12/27 08:38:27;;;;;;;236.00;38.17;;;;;;;4.30;100.00;99992.00;5083007;28;20042;-76
2021/12/27 08:40:52;;;;;;;170.57;34.35;;;;;;;4.30;100.00;99999.81;5099308;28;20052;-76
2021/12/27 08:43:19;;;;;;;267.88;40.47;;;;;;;4.36;100.00;99997.38;5095505;28;20027;-76
2021/12/27 08:45:45;;;;;;;228.88;38.45;;;;;;;4.42;100.00;99996.66;5100701;28;20028;-76
2021/12/27 08:48:10;;;;;;;390.75;43.50;;;;;;;4.46;100.00;99995.03;5086445;28;20116;-76
2021/12/27 08:50:37;;;;;;;228.07;38.17;;;;;;;4.45;100.00;99988.94;5083470;28;20024;-75
2021/12/27 08:53:05;;;;;;;213.90;36.70;;;;;;;4.46;100.00;99989.81;5085127;28;20028;-76
2021/12/27 08:55:33;;;;;;;188.75;37.67;;;;;;;4.46;100.00;99987.22;5102886;28;20027;-76
2021/12/27 08:57:59;;;;;;;291.92;42.78;;;;;;;4.49;100.00;99987.28;5104052;28;20068;-76
2021/12/27 09:00:24;;;;;;;303.88;41.17;;;;;;;4.51;100.00;99964.78;5103803;28;20096;-76
2021/12/27 09:02:52;;;;;;;224.80;37.97;;;;;;;4.52;100.00;99967.41;5088125;28;20359;-76
2021/12/27 09:05:17;;;;;;;267.17;40.08;;;;;;;4.54;100.00;99967.47;5105047;28;20156;-76
2021/12/27 09:07:43;;;;;;;307.33;40.92;;;;;;;4.57;100.00;99964.91;5077962;28;20051;-76
2021/12/27 09:10:09;;;;;;;313.10;40.25;;;;;;;4.59;100.00;99965.84;5110602;28;20169;-76
2021/12/27 09:12:35;;;;;;;189.65;35.03;;;;;;;4.58;100.00;99971.91;5105234;28;20416;-76
2021/12/27 09:15:01;;;;;;;206.77;38.15;;;;;;;4.57;100.00;99983.16;5101752;28;20116;-76
2021/12/27 09:17:26;;;;;;;178.55;35.10;;;;;;;4.62;100.00;99994.59;5066437;28;20024;-76
2021/12/27 09:19:52;;;;;;;254.50;38.97;;;;;;;4.65;100.00;99996.41;5104336;28;20040;-76
2021/12/27 09:22:18;;;;;;;212.15;36.42;;;;;;;4.65;100.00;99993.81;5096534;28;20035;-76
2021/12/27 09:24:44;;;;;;;235.80;39.67;;;;;;;4.68;100.00;100000.00;5098645;28;20026;-76
2021/12/27 09:27:10;;;;;;;232.13;39.55;;;;;;;4.71;100.00;100000.06;5094597;28;20036;-76
2021/12/27 09:29:35;;;;;;;247.20;40.42;;;;;;;4.76;100.00;100012.31;5106412;28;20364;-76
2021/12/27 09:32:01;;;;;;;237.25;41.58;;;;;;;4.80;100.00;100008.97;5087072;28;20114;-76
2021/12/27 09:34:26;;;;;;;290.38;44.78;;;;;;;4.84;100.00;100016.00;5078293;28;20380;-76
2021/12/27 09:36:52;;;;;;;256.90;41.22;;;;;;;4.86;100.00;100014.34;5085613;28;20448;-76
2021/12/27 09:39:18;;;;;;;227.32;39.08;;;;;;;4.85;100.00;100003.03;5088110;28;20016;-76
2021/12/27 09:41:46;;;;;;;220.40;39.42;;;;;;;4.87;100.00;99995.22;5096228;28;20036;-77
2021/12/27 09:44:11;;;;;;;226.35;36.47;;;;;;;4.86;100.00;99998.72;5111899;28;20076;-76
2021/12/27 09:46:37;;;;;;;326.45;42.42;;;;;;;4.87;100.00;99988.31;5083975;28;20053;-76
2021/12/27 09:49:10;;;;;;;273.95;39.58;;;;;;;4.89;100.00;99978.78;5098725;28;20440;-76
2021/12/27 09:51:37;;;;;;;243.00;38.70;;;;;;;4.89;100.00;99986.63;5105213;28;20030;-76
2021/12/27 09:54:04;;;;;;;253.90;39.47;;;;;;;4.90;100.00;99987.53;5105968;28;20058;-77
2021/12/27 09:56:30;;;;;;;330.33;39.83;;;;;;;4.96;100.00;99969.41;5104958;28;20042;-76
2021/12/27 09:58:56;;;;;;;229.35;34.83;;;;;;;5.00;100.00;99965.16;5081704;28;20039;-76
2021/12/27 10:01:22;;;;;;;316.27;40.00;;;;;;;5.00;100.00;99955.59;5108668;28;20024;-76
2021/12/27 10:03:50;;;;;;;225.65;35.85;;;;;;;5.02;100.00;99948.72;5086158;28;20086;-76
2021/12/27 10:06:18;;;;;;;181.05;34.78;;;;;;;5.02;100.00;99951.31;5099839;28;20069;-76
2021/12/27 10:08:50;;;;;;;214.93;36.65;;;;;;;5.04;100.00;99952.22;5098599;28;20560;-75
2021/12/27 10:11:27;;;;;;;147.80;33.85;;;;;;;5.09;100.00;99928.88;5104635;28;20031;-75
2021/12/27 10:14:11;;;;;;;170.30;31.95;;;;;;;5.09;100.00;99938.41;5101242;28;20024;-76
2021/12/27 10:16:58;;;;;;;198.68;35.22;;;;;;;5.11;100.00;99941.97;5084232;28;20031;-77
2021/12/27 10:19:24;;;;;;;245.43;35.60;;;;;;;5.15;100.00;99954.22;5072607;28;20032;-77
2021/12/27 10:21:52;;;;;;;204.88;35.28;;;;;;;5.19;100.00;99948.22;5100846;28;20025;-77
2021/12/27 10:24:29;;;;;;;203.57;33.63;;;;;;;5.21;100.00;99946.56;5096421;28;20044;-77
2021/12/27 10:27:01;;;;;;;257.52;37.13;;;;;;;5.25;100.00;99940.56;5098260;28;20024;-76
2021/12/27 10:29:35;;;;;;;213.05;35.97;;;;;;;5.22;100.00;99957.03;5090020;28;20423;-77
2021/12/27 10:32:05;;;;;;;229.18;35.83;;;;;;;5.26;100.00;99952.75;5080132;28;20399;-75
2021/12/27 10:34:34;;;;;;;216.27;36.47;;;;;;;5.28;100.00;99948.47;5105109;28;20031;-76
2021/12/27 10:37:23;;;;;;;280.85;39.75;;;;;;;5.30;100.00;99953.72;5103452;28;20039;-77
2021/12/27 10:39:56;;;;;;;372.63;42.53;;;;;;;5.31;100.00;99943.31;5087956;28;20494;-78
2021/12/27 10:42:43;;;;;;;240.60;36.00;;;;;;;5.33;100.00;99939.03;5105762;28;20019;-77
2021/12/27 10:45:21;;;;;;;256.83;36.67;;;;;;;5.36;100.00;99944.28;5109285;28;20024;-79
2021/12/27 10:47:50;;;;;;;215.40;36.05;;;;;;;5.39;100.00;99949.56;5109020;28;20032;-79
2021/12/27 10:50:24;;;;;;;274.38;39.15;;;;;;;5.44;100.00;99946.19;5111959;28;20028;-79
2021/12/27 10:52:51;;;;;;;;;;;;;;;5.41;100.00;99941.78;5095875;28;20032;-78
2021/12/27 10:55:24;;;;;;;210.23;35.60;;;;;;;5.38;100.00;99931.28;5091868;28;19915;-78
2021/12/27 10:57:50;;;;;;;277.75;37.22;;;;;;;5.38;100.00;99939.09;5102500;28;20036;-78
2021/12/27 11:00:22;;;;;;;184.85;33.00;;;;;;;5.40;100.00;99927.88;5114556;28;20494;-79
2021/12/27 11:02:54;;;;;;;216.98;35.88;;;;;;;5.42;100.00;99927.03;5090665;28;20031;-80
2021/12/27 11:05:25;;;;;;;192.18;32.90;;;;;;;5.48;100.00;99928.03;5105405;28;20469;-79
2021/12/27 11:07:59;;;;;;;201.60;36.20;;;;;;;5.47;100.00;99930.63;5112096;28;20038;-79
2021/12/27 11:10:24;;;;;;;249.77;38.05;;;;;;;5.49;100.00;99931.53;5098325;28;20387;-79
2021/12/27 11:12:51;;;;;;;244.70;37.95;;;;;;;5.53;100.00;99925.53;5101500;28;20114;-78
2021/12/27 11:15:17;;;;;;;207.73;39.15;;;;;;;5.56;100.00;99912.53;5107631;28;20022;-78